sensor_id;sensor_type;location;lat;lon;timestamp;P1;durP1;ratioP1;P2;durP2;ratioP2
3217;SDS011;1621;49.702;8.618;2023-12-28T00:01:34;9.83;;;4.70;;
3217;SDS011;1621;49.702;8.618;2023-12-28T00:04:00;7.93;;;4.80;;
3217;SDS011;1621;49.702;8.618;2023-12-28T00:06:26;7.80;;;4.80;;
3217;SDS011;1621;49.702;8.618;2023-12-28T00:08:54;7.17;;;4.40;;
3217;SDS011;1621;49.702;8.618;2023-12-28T00:11:20;6.50;;;4.80;;
3217;SDS011;1621;49.702;8.618;2023-12-28T00:13:46;8.20;;;5.33;;
3217;SDS011;1621;49.702;8.618;2023-12-28T00:16:13;14.80;;;5.10;;
3217;SDS011;1621;49.702;8.618;2023-12-28T00:18:39;6.43;;;5.07;;
3217;SDS011;1621;49.702;8.618;2023-12-28T00:21:05;8.63;;;4.70;;
3217;SDS011;1621;49.702;8.618;2023-12-28T00:23:31;7.47;;;5.10;;
3217;SDS011;1621;49.702;8.618;2023-12-28T00:25:59;6.77;;;4.77;;
3217;SDS011;1621;49.702;8.618;2023-12-28T00:28:25;11.80;;;5.13;;
3217;SDS011;1621;49.702;8.618;2023-12-28T00:30:52;9.67;;;5.93;;
3217;SDS011;1621;49.702;8.618;2023-12-28T00:33:18;7.20;;;4.87;;
3217;SDS011;1621;49.702;8.618;2023-12-28T00:35:44;7.80;;;5.17;;
3217;SDS011;1621;49.702;8.618;2023-12-28T00:38:10;10.20;;;4.93;;
3217;SDS011;1621;49.702;8.618;2023-12-28T00:40:37;10.57;;;5.60;;
3217;SDS011;1621;49.702;8.618;2023-12-28T00:43:04;9.53;;;5.13;;
3217;SDS011;1621;49.702;8.618;2023-12-28T00:45:31;7.40;;;5.40;;
3217;SDS011;1621;49.702;8.618;2023-12-28T00:47:57;8.20;;;5.50;;
3217;SDS011;1621;49.702;8.618;2023-12-28T00:50:23;7.00;;;4.70;;
3217;SDS011;1621;49.702;8.618;2023-12-28T00:52:52;6.23;;;4.70;;
3217;SDS011;1621;49.702;8.618;2023-12-28T00:55:18;8.60;;;5.17;;
3217;SDS011;1621;49.702;8.618;2023-12-28T00:57:44;7.87;;;5.10;;
3217;SDS011;1621;49.702;8.618;2023-12-28T01:00:12;5.63;;;4.33;;
3217;SDS011;1621;49.702;8.618;2023-12-28T01:02:39;6.97;;;4.97;;
3217;SDS011;1621;49.702;8.618;2023-12-28T01:05:05;8.37;;;4.70;;
3217;SDS011;1621;49.702;8.618;2023-12-28T01:07:32;7.60;;;5.03;;
3217;SDS011;1621;49.702;8.618;2023-12-28T01:09:58;6.50;;;4.53;;
3217;SDS011;1621;49.702;8.618;2023-12-28T01:12:24;7.63;;;5.20;;
3217;SDS011;1621;49.702;8.618;2023-12-28T01:14:50;8.33;;;5.23;;
3217;SDS011;1621;49.702;8.618;2023-12-28T01:17:18;6.70;;;4.60;;
3217;SDS011;1621;49.702;8.618;2023-12-28T01:19:44;7.60;;;5.00;;
3217;SDS011;1621;49.702;8.618;2023-12-28T01:22:11;6.23;;;4.40;;
3217;SDS011;1621;49.702;8.618;2023-12-28T01:24:37;6.87;;;4.83;;
3217;SDS011;1621;49.702;8.618;2023-12-28T01:27:03;7.70;;;4.47;;
3217;SDS011;1621;49.702;8.618;2023-12-28T01:29:30;9.10;;;4.57;;
3217;SDS011;1621;49.702;8.618;2023-12-28T01:31:57;10.60;;;5.07;;
3217;SDS011;1621;49.702;8.618;2023-12-28T01:34:25;6.77;;;4.57;;
3217;SDS011;1621;49.702;8.618;2023-12-28T01:36:51;7.40;;;4.40;;
3217;SDS011;1621;49.702;8.618;2023-12-28T01:39:17;5.80;;;4.30;;
3217;SDS011;1621;49.702;8.618;2023-12-28T01:41:44;6.03;;;4.37;;
3217;SDS011;1621;49.702;8.618;2023-12-28T01:44:10;6.20;;;4.43;;
3217;SDS011;1621;49.702;8.618;2023-12-28T01:46:36;6.30;;;4.50;;
3217;SDS011;1621;49.702;8.618;2023-12-28T01:49:03;7.50;;;4.77;;
3217;SDS011;1621;49.702;8.618;2023-12-28T01:51:32;8.47;;;5.10;;
3217;SDS011;1621;49.702;8.618;2023-12-28T01:53:59;8.30;;;4.30;;
3217;SDS011;1621;49.702;8.618;2023-12-28T01:56:26;8.37;;;4.70;;
3217;SDS011;1621;49.702;8.618;2023-12-28T01:58:52;8.23;;;4.50;;
3217;SDS011;1621;49.702;8.618;2023-12-28T02:01:19;5.93;;;4.60;;
3217;SDS011;1621;49.702;8.618;2023-12-28T02:03:46;6.83;;;4.40;;
3217;SDS011;1621;49.702;8.618;2023-12-28T02:06:13;6.23;;;4.33;;
3217;SDS011;1621;49.702;8.618;2023-12-28T02:08:42;7.30;;;4.77;;
3217;SDS011;1621;49.702;8.618;2023-12-28T02:11:08;6.77;;;4.33;;
3217;SDS011;1621;49.702;8.618;2023-12-28T02:13:35;5.80;;;3.90;;
3217;SDS011;1621;49.702;8.618;2023-12-28T02:16:02;6.13;;;4.43;;
3217;SDS011;1621;49.702;8.618;2023-12-28T02:18:30;9.57;;;5.10;;
3217;SDS011;1621;49.702;8.618;2023-12-28T02:20:59;7.17;;;4.57;;
3217;SDS011;1621;49.702;8.618;2023-12-28T02:23:26;7.20;;;4.40;;
3217;SDS011;1621;49.702;8.618;2023-12-28T02:25:53;9.13;;;4.43;;
3217;SDS011;1621;49.702;8.618;2023-12-28T02:28:19;6.53;;;3.97;;
3217;SDS011;1621;49.702;8.618;2023-12-28T02:30:46;5.67;;;4.10;;
3217;SDS011;1621;49.702;8.618;2023-12-28T02:33:14;5.73;;;4.60;;
3217;SDS011;1621;49.702;8.618;2023-12-28T02:35:42;7.60;;;4.60;;
3217;SDS011;1621;49.702;8.618;2023-12-28T02:38:09;6.37;;;4.23;;
3217;SDS011;1621;49.702;8.618;2023-12-28T02:40:36;6.23;;;4.67;;
3217;SDS011;1621;49.702;8.618;2023-12-28T02:43:04;6.67;;;4.73;;
3217;SDS011;1621;49.702;8.618;2023-12-28T02:45:31;9.70;;;4.80;;
3217;SDS011;1621;49.702;8.618;2023-12-28T02:47:57;7.27;;;5.03;;
3217;SDS011;1621;49.702;8.618;2023-12-28T02:50:23;8.50;;;4.50;;
3217;SDS011;1621;49.702;8.618;2023-12-28T02:52:49;6.03;;;4.50;;
3217;SDS011;1621;49.702;8.618;2023-12-28T02:55:16;6.87;;;5.13;;
3217;SDS011;1621;49.702;8.618;2023-12-28T02:57:42;7.63;;;4.60;;
3217;SDS011;1621;49.702;8.618;2023-12-28T03:00:11;6.60;;;4.40;;
3217;SDS011;1621;49.702;8.618;2023-12-28T03:02:37;8.90;;;4.97;;
3217;SDS011;1621;49.702;8.618;2023-12-28T03:05:04;8.10;;;4.27;;
3217;SDS011;1621;49.702;8.618;2023-12-28T03:07:31;7.60;;;4.20;;
3217;SDS011;1621;49.702;8.618;2023-12-28T03:09:57;5.70;;;4.27;;
3217;SDS011;1621;49.702;8.618;2023-12-28T03:12:23;7.53;;;4.40;;
3217;SDS011;1621;49.702;8.618;2023-12-28T03:14:50;7.60;;;4.40;;
3217;SDS011;1621;49.702;8.618;2023-12-28T03:17:17;6.60;;;4.60;;
3217;SDS011;1621;49.702;8.618;2023-12-28T03:19:43;9.27;;;4.50;;
3217;SDS011;1621;49.702;8.618;2023-12-28T03:22:10;6.70;;;4.37;;
3217;SDS011;1621;49.702;8.618;2023-12-28T03:24:36;7.60;;;4.43;;
3217;SDS011;1621;49.702;8.618;2023-12-28T03:27:03;6.43;;;4.73;;
3217;SDS011;1621;49.702;8.618;2023-12-28T03:29:29;6.60;;;3.90;;
3217;SDS011;1621;49.702;8.618;2023-12-28T03:31:56;6.23;;;4.17;;
3217;SDS011;1621;49.702;8.618;2023-12-28T03:34:23;5.90;;;4.10;;
3217;SDS011;1621;49.702;8.618;2023-12-28T03:36:51;6.90;;;4.40;;
3217;SDS011;1621;49.702;8.618;2023-12-28T03:39:17;6.70;;;4.40;;
3217;SDS011;1621;49.702;8.618;2023-12-28T03:41:44;5.17;;;3.70;;
3217;SDS011;1621;49.702;8.618;2023-12-28T03:44:10;7.10;;;4.40;;
3217;SDS011;1621;49.702;8.618;2023-12-28T03:46:36;7.90;;;4.50;;
3217;SDS011;1621;49.702;8.618;2023-12-28T03:49:02;7.53;;;4.33;;
3217;SDS011;1621;49.702;8.618;2023-12-28T03:51:30;5.97;;;4.13;;
3217;SDS011;1621;49.702;8.618;2023-12-28T03:53:56;4.77;;;3.63;;
3217;SDS011;1621;49.702;8.618;2023-12-28T03:56:23;7.50;;;3.80;;
3217;SDS011;1621;49.702;8.618;2023-12-28T03:58:50;6.80;;;3.93;;
3217;SDS011;1621;49.702;8.618;2023-12-28T04:01:17;7.73;;;4.33;;
3217;SDS011;1621;49.702;8.618;2023-12-28T04:03:43;5.07;;;3.33;;
3217;SDS011;1621;49.702;8.618;2023-12-28T04:06:10;5.30;;;3.63;;
3217;SDS011;1621;49.702;8.618;2023-12-28T04:08:39;5.70;;;3.93;;
3217;SDS011;1621;49.702;8.618;2023-12-28T04:11:05;8.77;;;4.47;;
3217;SDS011;1621;49.702;8.618;2023-12-28T04:13:31;7.03;;;4.20;;
3217;SDS011;1621;49.702;8.618;2023-12-28T04:15:57;6.70;;;4.50;;
3217;SDS011;1621;49.702;8.618;2023-12-28T04:18:24;5.87;;;3.70;;
3217;SDS011;1621;49.702;8.618;2023-12-28T04:20:50;6.20;;;3.73;;
3217;SDS011;1621;49.702;8.618;2023-12-28T04:23:16;7.00;;;3.70;;
3217;SDS011;1621;49.702;8.618;2023-12-28T04:25:44;6.67;;;3.93;;
3217;SDS011;1621;49.702;8.618;2023-12-28T04:28:10;5.83;;;3.40;;
3217;SDS011;1621;49.702;8.618;2023-12-28T04:30:36;4.43;;;3.17;;
3217;SDS011;1621;49.702;8.618;2023-12-28T04:33:03;4.60;;;3.30;;
3217;SDS011;1621;49.702;8.618;2023-12-28T04:35:29;4.67;;;3.10;;
3217;SDS011;1621;49.702;8.618;2023-12-28T04:37:56;5.70;;;3.67;;
3217;SDS011;1621;49.702;8.618;2023-12-28T04:40:22;4.50;;;3.07;;
3217;SDS011;1621;49.702;8.618;2023-12-28T04:42:50;6.70;;;3.70;;
3217;SDS011;1621;49.702;8.618;2023-12-28T04:45:16;6.30;;;3.20;;
3217;SDS011;1621;49.702;8.618;2023-12-28T04:47:43;10.90;;;3.30;;
3217;SDS011;1621;49.702;8.618;2023-12-28T04:50:09;5.33;;;3.37;;
3217;SDS011;1621;49.702;8.618;2023-12-28T04:52:35;6.13;;;3.30;;
3217;SDS011;1621;49.702;8.618;2023-12-28T04:55:01;4.17;;;2.87;;
3217;SDS011;1621;49.702;8.618;2023-12-28T04:57:28;4.93;;;2.83;;
3217;SDS011;1621;49.702;8.618;2023-12-28T04:59:55;4.93;;;2.70;;
3217;SDS011;1621;49.702;8.618;2023-12-28T05:02:22;5.17;;;3.03;;
3217;SDS011;1621;49.702;8.618;2023-12-28T05:04:48;4.37;;;2.93;;
3217;SDS011;1621;49.702;8.618;2023-12-28T05:07:14;5.70;;;3.37;;
3217;SDS011;1621;49.702;8.618;2023-12-28T05:09:40;5.80;;;2.93;;
3217;SDS011;1621;49.702;8.618;2023-12-28T05:12:07;5.63;;;3.50;;
3217;SDS011;1621;49.702;8.618;2023-12-28T05:14:33;5.30;;;3.00;;
3217;SDS011;1621;49.702;8.618;2023-12-28T05:17:01;4.60;;;3.17;;
3217;SDS011;1621;49.702;8.618;2023-12-28T05:19:27;5.30;;;3.13;;
3217;SDS011;1621;49.702;8.618;2023-12-28T05:21:53;4.63;;;2.57;;
3217;SDS011;1621;49.702;8.618;2023-12-28T05:24:19;4.70;;;2.73;;
3217;SDS011;1621;49.702;8.618;2023-12-28T05:26:46;5.20;;;2.97;;
3217;SDS011;1621;49.702;8.618;2023-12-28T05:29:12;5.53;;;2.73;;
3217;SDS011;1621;49.702;8.618;2023-12-28T05:31:38;6.83;;;3.23;;
3217;SDS011;1621;49.702;8.618;2023-12-28T05:34:06;5.07;;;3.00;;
3217;SDS011;1621;49.702;8.618;2023-12-28T05:36:32;5.40;;;3.00;;
3217;SDS011;1621;49.702;8.618;2023-12-28T05:38:58;4.07;;;2.30;;
3217;SDS011;1621;49.702;8.618;2023-12-28T05:41:25;4.13;;;2.70;;
3217;SDS011;1621;49.702;8.618;2023-12-28T05:43:51;5.00;;;2.83;;
3217;SDS011;1621;49.702;8.618;2023-12-28T05:46:17;4.73;;;3.20;;
3217;SDS011;1621;49.702;8.618;2023-12-28T05:48:43;4.40;;;2.90;;
3217;SDS011;1621;49.702;8.618;2023-12-28T05:51:11;4.97;;;3.23;;
3217;SDS011;1621;49.702;8.618;2023-12-28T05:53:37;6.47;;;3.37;;
3217;SDS011;1621;49.702;8.618;2023-12-28T05:56:04;4.10;;;2.50;;
3217;SDS011;1621;49.702;8.618;2023-12-28T05:58:30;4.90;;;2.93;;
3217;SDS011;1621;49.702;8.618;2023-12-28T06:00:56;4.90;;;3.10;;
3217;SDS011;1621;49.702;8.618;2023-12-28T06:03:23;4.43;;;2.87;;
3217;SDS011;1621;49.702;8.618;2023-12-28T06:05:53;5.13;;;3.07;;
3217;SDS011;1621;49.702;8.618;2023-12-28T06:08:20;6.23;;;2.80;;
3217;SDS011;1621;49.702;8.618;2023-12-28T06:10:46;5.93;;;3.17;;
3217;SDS011;1621;49.702;8.618;2023-12-28T06:13:13;5.50;;;3.00;;
3217;SDS011;1621;49.702;8.618;2023-12-28T06:15:40;4.57;;;2.43;;
3217;SDS011;1621;49.702;8.618;2023-12-28T06:18:06;7.70;;;3.20;;
3217;SDS011;1621;49.702;8.618;2023-12-28T06:20:32;4.40;;;3.00;;
3217;SDS011;1621;49.702;8.618;2023-12-28T06:22:59;5.30;;;2.80;;
3217;SDS011;1621;49.702;8.618;2023-12-28T06:25:26;4.83;;;3.03;;
3217;SDS011;1621;49.702;8.618;2023-12-28T06:27:52;6.53;;;3.23;;
3217;SDS011;1621;49.702;8.618;2023-12-28T06:30:19;5.00;;;3.00;;
3217;SDS011;1621;49.702;8.618;2023-12-28T06:32:45;4.77;;;3.07;;
3217;SDS011;1621;49.702;8.618;2023-12-28T06:35:11;6.43;;;2.90;;
3217;SDS011;1621;49.702;8.618;2023-12-28T06:37:37;4.70;;;3.17;;
3217;SDS011;1621;49.702;8.618;2023-12-28T06:40:04;4.23;;;2.67;;
3217;SDS011;1621;49.702;8.618;2023-12-28T06:42:32;5.70;;;3.30;;
3217;SDS011;1621;49.702;8.618;2023-12-28T06:44:58;4.90;;;3.10;;
3217;SDS011;1621;49.702;8.618;2023-12-28T06:47:24;7.17;;;3.70;;
3217;SDS011;1621;49.702;8.618;2023-12-28T06:49:51;4.03;;;2.40;;
3217;SDS011;1621;49.702;8.618;2023-12-28T06:52:17;5.20;;;2.97;;
3217;SDS011;1621;49.702;8.618;2023-12-28T06:54:43;5.33;;;2.80;;
3217;SDS011;1621;49.702;8.618;2023-12-28T06:57:10;7.60;;;3.07;;
3217;SDS011;1621;49.702;8.618;2023-12-28T06:59:37;4.50;;;3.03;;
3217;SDS011;1621;49.702;8.618;2023-12-28T07:02:03;5.33;;;3.33;;
3217;SDS011;1621;49.702;8.618;2023-12-28T07:04:30;4.97;;;2.97;;
3217;SDS011;1621;49.702;8.618;2023-12-28T07:06:58;4.83;;;3.17;;
3217;SDS011;1621;49.702;8.618;2023-12-28T07:09:24;8.50;;;3.37;;
3217;SDS011;1621;49.702;8.618;2023-12-28T07:11:50;4.80;;;3.17;;
3217;SDS011;1621;49.702;8.618;2023-12-28T07:14:16;5.17;;;3.50;;
3217;SDS011;1621;49.702;8.618;2023-12-28T07:16:44;5.60;;;3.53;;
3217;SDS011;1621;49.702;8.618;2023-12-28T07:19:10;5.00;;;2.97;;
3217;SDS011;1621;49.702;8.618;2023-12-28T07:21:37;6.37;;;3.10;;
3217;SDS011;1621;49.702;8.618;2023-12-28T07:24:03;5.10;;;3.23;;
3217;SDS011;1621;49.702;8.618;2023-12-28T07:26:30;5.60;;;3.00;;
3217;SDS011;1621;49.702;8.618;2023-12-28T07:28:56;6.70;;;3.77;;
3217;SDS011;1621;49.702;8.618;2023-12-28T07:31:22;6.20;;;3.63;;
3217;SDS011;1621;49.702;8.618;2023-12-28T07:33:50;5.53;;;2.83;;
3217;SDS011;1621;49.702;8.618;2023-12-28T07:36:16;5.57;;;3.27;;
3217;SDS011;1621;49.702;8.618;2023-12-28T07:38:44;4.63;;;2.80;;
3217;SDS011;1621;49.702;8.618;2023-12-28T07:41:10;4.20;;;2.83;;
3217;SDS011;1621;49.702;8.618;2023-12-28T07:43:37;5.60;;;3.27;;
3217;SDS011;1621;49.702;8.618;2023-12-28T07:46:03;4.60;;;2.70;;
3217;SDS011;1621;49.702;8.618;2023-12-28T07:48:30;6.90;;;2.93;;
3217;SDS011;1621;49.702;8.618;2023-12-28T07:50:57;8.73;;;3.60;;
3217;SDS011;1621;49.702;8.618;2023-12-28T07:53:24;5.23;;;3.40;;
3217;SDS011;1621;49.702;8.618;2023-12-28T07:55:50;6.20;;;2.33;;
3217;SDS011;1621;49.702;8.618;2023-12-28T07:58:16;5.33;;;3.00;;
3217;SDS011;1621;49.702;8.618;2023-12-28T08:00:43;6.00;;;3.20;;
3217;SDS011;1621;49.702;8.618;2023-12-28T08:03:09;4.77;;;3.13;;
3217;SDS011;1621;49.702;8.618;2023-12-28T08:05:37;4.40;;;2.70;;
3217;SDS011;1621;49.702;8.618;2023-12-28T08:08:05;10.20;;;3.10;;
3217;SDS011;1621;49.702;8.618;2023-12-28T08:10:31;4.70;;;3.00;;
3217;SDS011;1621;49.702;8.618;2023-12-28T08:12:57;6.03;;;2.57;;
3217;SDS011;1621;49.702;8.618;2023-12-28T08:15:24;6.30;;;3.10;;
3217;SDS011;1621;49.702;8.618;2023-12-28T08:17:50;5.00;;;2.67;;
3217;SDS011;1621;49.702;8.618;2023-12-28T08:20:16;4.37;;;3.17;;
3217;SDS011;1621;49.702;8.618;2023-12-28T08:22:42;4.50;;;3.00;;
3217;SDS011;1621;49.702;8.618;2023-12-28T08:25:10;5.60;;;3.30;;
3217;SDS011;1621;49.702;8.618;2023-12-28T08:27:36;5.90;;;3.47;;
3217;SDS011;1621;49.702;8.618;2023-12-28T08:30:03;5.53;;;3.03;;
3217;SDS011;1621;49.702;8.618;2023-12-28T08:32:29;5.60;;;3.50;;
3217;SDS011;1621;49.702;8.618;2023-12-28T08:34:56;4.90;;;3.37;;
3217;SDS011;1621;49.702;8.618;2023-12-28T08:37:22;7.40;;;3.80;;
3217;SDS011;1621;49.702;8.618;2023-12-28T08:39:49;4.67;;;2.77;;
3217;SDS011;1621;49.702;8.618;2023-12-28T08:42:16;6.00;;;3.27;;
3217;SDS011;1621;49.702;8.618;2023-12-28T08:44:42;4.43;;;3.00;;
3217;SDS011;1621;49.702;8.618;2023-12-28T08:47:09;5.83;;;3.50;;
3217;SDS011;1621;49.702;8.618;2023-12-28T08:49:35;4.60;;;3.30;;
3217;SDS011;1621;49.702;8.618;2023-12-28T08:52:01;4.57;;;3.30;;
3217;SDS011;1621;49.702;8.618;2023-12-28T08:54:28;7.70;;;3.33;;
3217;SDS011;1621;49.702;8.618;2023-12-28T08:56:54;6.27;;;3.20;;
3217;SDS011;1621;49.702;8.618;2023-12-28T08:59:21;6.73;;;3.17;;
3217;SDS011;1621;49.702;8.618;2023-12-28T09:01:48;5.80;;;3.50;;
3217;SDS011;1621;49.702;8.618;2023-12-28T09:04:14;5.97;;;2.53;;
3217;SDS011;1621;49.702;8.618;2023-12-28T09:06:40;5.17;;;3.50;;
3217;SDS011;1621;49.702;8.618;2023-12-28T09:09:06;4.80;;;2.90;;
3217;SDS011;1621;49.702;8.618;2023-12-28T09:11:33;4.20;;;2.83;;
3217;SDS011;1621;49.702;8.618;2023-12-28T09:13:59;6.67;;;3.23;;
3217;SDS011;1621;49.702;8.618;2023-12-28T09:16:27;5.30;;;2.97;;
3217;SDS011;1621;49.702;8.618;2023-12-28T09:18:54;5.97;;;3.40;;
3217;SDS011;1621;49.702;8.618;2023-12-28T09:21:22;8.23;;;3.70;;
3217;SDS011;1621;49.702;8.618;2023-12-28T09:23:48;5.30;;;3.13;;
3217;SDS011;1621;49.702;8.618;2023-12-28T09:26:14;5.73;;;3.30;;
3217;SDS011;1621;49.702;8.618;2023-12-28T09:28:40;5.93;;;3.60;;
3217;SDS011;1621;49.702;8.618;2023-12-28T09:31:07;5.80;;;3.33;;
3217;SDS011;1621;49.702;8.618;2023-12-28T09:33:34;5.00;;;3.20;;
3217;SDS011;1621;49.702;8.618;2023-12-28T09:36:02;6.20;;;3.63;;
3217;SDS011;1621;49.702;8.618;2023-12-28T09:38:29;5.20;;;3.47;;
3217;SDS011;1621;49.702;8.618;2023-12-28T09:40:55;5.83;;;3.70;;
3217;SDS011;1621;49.702;8.618;2023-12-28T09:43:24;5.87;;;4.00;;
3217;SDS011;1621;49.702;8.618;2023-12-28T09:45:51;6.70;;;3.80;;
3217;SDS011;1621;49.702;8.618;2023-12-28T09:48:17;4.73;;;3.40;;
3217;SDS011;1621;49.702;8.618;2023-12-28T09:50:44;7.80;;;4.03;;
3217;SDS011;1621;49.702;8.618;2023-12-28T09:53:11;8.27;;;3.97;;
3217;SDS011;1621;49.702;8.618;2023-12-28T09:55:37;6.60;;;3.67;;
3217;SDS011;1621;49.702;8.618;2023-12-28T09:58:04;9.07;;;3.90;;
3217;SDS011;1621;49.702;8.618;2023-12-28T10:00:31;5.67;;;3.63;;
3217;SDS011;1621;49.702;8.618;2023-12-28T10:02:58;4.80;;;3.10;;
3217;SDS011;1621;49.702;8.618;2023-12-28T10:05:24;5.70;;;3.07;;
3217;SDS011;1621;49.702;8.618;2023-12-28T10:07:52;4.33;;;2.80;;
3217;SDS011;1621;49.702;8.618;2023-12-28T10:10:21;4.33;;;2.60;;
3217;SDS011;1621;49.702;8.618;2023-12-28T10:12:47;5.87;;;2.70;;
3217;SDS011;1621;49.702;8.618;2023-12-28T10:15:14;4.70;;;2.77;;
3217;SDS011;1621;49.702;8.618;2023-12-28T10:17:40;5.40;;;2.93;;
3217;SDS011;1621;49.702;8.618;2023-12-28T10:20:06;4.80;;;2.33;;
3217;SDS011;1621;49.702;8.618;2023-12-28T10:22:34;4.17;;;2.57;;
3217;SDS011;1621;49.702;8.618;2023-12-28T10:25:03;4.83;;;2.70;;
3217;SDS011;1621;49.702;8.618;2023-12-28T10:27:29;4.53;;;2.53;;
3217;SDS011;1621;49.702;8.618;2023-12-28T10:29:56;3.97;;;2.30;;
3217;SDS011;1621;49.702;8.618;2023-12-28T10:32:22;9.13;;;3.80;;
3217;SDS011;1621;49.702;8.618;2023-12-28T10:34:50;5.43;;;3.10;;
3217;SDS011;1621;49.702;8.618;2023-12-28T10:37:17;5.20;;;2.93;;
3217;SDS011;1621;49.702;8.618;2023-12-28T10:39:45;10.30;;;3.50;;
3217;SDS011;1621;49.702;8.618;2023-12-28T10:42:14;6.27;;;3.90;;
3217;SDS011;1621;49.702;8.618;2023-12-28T10:44:42;6.27;;;3.43;;
3217;SDS011;1621;49.702;8.618;2023-12-28T10:47:10;10.13;;;3.40;;
3217;SDS011;1621;49.702;8.618;2023-12-28T10:49:37;4.90;;;3.00;;
3217;SDS011;1621;49.702;8.618;2023-12-28T10:52:05;6.00;;;2.80;;
3217;SDS011;1621;49.702;8.618;2023-12-28T10:54:37;4.97;;;3.10;;
3217;SDS011;1621;49.702;8.618;2023-12-28T10:57:09;5.83;;;3.27;;
3217;SDS011;1621;49.702;8.618;2023-12-28T10:59:41;5.03;;;3.30;;
3217;SDS011;1621;49.702;8.618;2023-12-28T11:02:11;5.90;;;3.40;;
3217;SDS011;1621;49.702;8.618;2023-12-28T11:04:42;4.43;;;2.80;;
3217;SDS011;1621;49.702;8.618;2023-12-28T11:07:10;5.63;;;3.27;;
3217;SDS011;1621;49.702;8.618;2023-12-28T11:09:39;5.37;;;3.23;;
3217;SDS011;1621;49.702;8.618;2023-12-28T11:12:07;5.90;;;3.23;;
3217;SDS011;1621;49.702;8.618;2023-12-28T11:14:35;9.03;;;3.70;;
3217;SDS011;1621;49.702;8.618;2023-12-28T11:17:03;5.20;;;2.70;;
3217;SDS011;1621;49.702;8.618;2023-12-28T11:19:29;4.70;;;3.00;;
3217;SDS011;1621;49.702;8.618;2023-12-28T11:21:56;5.60;;;2.93;;
3217;SDS011;1621;49.702;8.618;2023-12-28T11:24:25;6.70;;;3.80;;
3217;SDS011;1621;49.702;8.618;2023-12-28T11:26:52;4.97;;;2.90;;
3217;SDS011;1621;49.702;8.618;2023-12-28T11:29:19;4.47;;;2.97;;
3217;SDS011;1621;49.702;8.618;2023-12-28T11:31:50;7.03;;;3.60;;
3217;SDS011;1621;49.702;8.618;2023-12-28T11:34:17;4.40;;;2.90;;
3217;SDS011;1621;49.702;8.618;2023-12-28T11:36:44;5.03;;;3.50;;
3217;SDS011;1621;49.702;8.618;2023-12-28T11:39:12;7.20;;;3.57;;
3217;SDS011;1621;49.702;8.618;2023-12-28T11:41:38;5.23;;;3.43;;
3217;SDS011;1621;49.702;8.618;2023-12-28T11:44:05;5.60;;;3.70;;
3217;SDS011;1621;49.702;8.618;2023-12-28T11:46:31;7.00;;;4.57;;
3217;SDS011;1621;49.702;8.618;2023-12-28T11:49:04;6.40;;;4.00;;
3217;SDS011;1621;49.702;8.618;2023-12-28T11:51:32;5.83;;;3.57;;
3217;SDS011;1621;49.702;8.618;2023-12-28T11:53:58;6.87;;;3.80;;
3217;SDS011;1621;49.702;8.618;2023-12-28T11:56:25;5.40;;;3.67;;
3217;SDS011;1621;49.702;8.618;2023-12-28T11:58:51;7.13;;;4.27;;
3217;SDS011;1621;49.702;8.618;2023-12-28T12:01:18;5.43;;;3.70;;
3217;SDS011;1621;49.702;8.618;2023-12-28T12:03:44;6.83;;;4.07;;
3217;SDS011;1621;49.702;8.618;2023-12-28T12:06:10;5.60;;;3.83;;
3217;SDS011;1621;49.702;8.618;2023-12-28T12:08:38;6.70;;;4.23;;
3217;SDS011;1621;49.702;8.618;2023-12-28T12:11:05;5.77;;;4.07;;
3217;SDS011;1621;49.702;8.618;2023-12-28T12:13:32;6.67;;;4.10;;
3217;SDS011;1621;49.702;8.618;2023-12-28T12:15:59;6.10;;;4.33;;
3217;SDS011;1621;49.702;8.618;2023-12-28T12:18:30;5.70;;;3.80;;
3217;SDS011;1621;49.702;8.618;2023-12-28T12:20:56;6.27;;;3.60;;
3217;SDS011;1621;49.702;8.618;2023-12-28T12:23:23;6.03;;;3.90;;
3217;SDS011;1621;49.702;8.618;2023-12-28T12:25:51;5.80;;;3.83;;
3217;SDS011;1621;49.702;8.618;2023-12-28T12:28:17;5.30;;;3.70;;
3217;SDS011;1621;49.702;8.618;2023-12-28T12:30:49;7.00;;;4.13;;
3217;SDS011;1621;49.702;8.618;2023-12-28T12:33:16;6.27;;;4.07;;
3217;SDS011;1621;49.702;8.618;2023-12-28T12:35:42;6.73;;;3.77;;
3217;SDS011;1621;49.702;8.618;2023-12-28T12:38:09;7.03;;;3.77;;
3217;SDS011;1621;49.702;8.618;2023-12-28T12:40:36;6.67;;;3.70;;
3217;SDS011;1621;49.702;8.618;2023-12-28T12:43:04;6.10;;;3.70;;
3217;SDS011;1621;49.702;8.618;2023-12-28T12:45:33;5.80;;;3.50;;
3217;SDS011;1621;49.702;8.618;2023-12-28T12:48:00;7.40;;;3.90;;
3217;SDS011;1621;49.702;8.618;2023-12-28T12:50:26;6.33;;;4.53;;
3217;SDS011;1621;49.702;8.618;2023-12-28T12:52:52;6.57;;;4.13;;
3217;SDS011;1621;49.702;8.618;2023-12-28T12:55:19;6.20;;;3.30;;
3217;SDS011;1621;49.702;8.618;2023-12-28T12:57:45;5.93;;;3.80;;
3217;SDS011;1621;49.702;8.618;2023-12-28T13:00:13;5.80;;;3.77;;
3217;SDS011;1621;49.702;8.618;2023-12-28T13:02:40;6.93;;;3.77;;
3217;SDS011;1621;49.702;8.618;2023-12-28T13:05:06;7.60;;;4.10;;
3217;SDS011;1621;49.702;8.618;2023-12-28T13:07:33;6.50;;;4.20;;
3217;SDS011;1621;49.702;8.618;2023-12-28T13:10:00;5.57;;;3.90;;
3217;SDS011;1621;49.702;8.618;2023-12-28T13:12:26;6.27;;;4.53;;
3217;SDS011;1621;49.702;8.618;2023-12-28T13:14:52;6.87;;;4.30;;
3217;SDS011;1621;49.702;8.618;2023-12-28T13:17:20;8.10;;;4.20;;
3217;SDS011;1621;49.702;8.618;2023-12-28T13:19:46;6.20;;;4.20;;
3217;SDS011;1621;49.702;8.618;2023-12-28T13:22:12;7.70;;;4.80;;
3217;SDS011;1621;49.702;8.618;2023-12-28T13:24:39;6.20;;;4.20;;
3217;SDS011;1621;49.702;8.618;2023-12-28T13:27:05;6.70;;;4.97;;
3217;SDS011;1621;49.702;8.618;2023-12-28T13:29:31;6.90;;;4.57;;
3217;SDS011;1621;49.702;8.618;2023-12-28T13:31:57;6.73;;;4.47;;
3217;SDS011;1621;49.702;8.618;2023-12-28T13:34:25;6.10;;;4.57;;
3217;SDS011;1621;49.702;8.618;2023-12-28T13:36:53;5.83;;;4.30;;
3217;SDS011;1621;49.702;8.618;2023-12-28T13:39:19;6.07;;;4.23;;
3217;SDS011;1621;49.702;8.618;2023-12-28T13:41:46;5.60;;;4.33;;
3217;SDS011;1621;49.702;8.618;2023-12-28T13:44:12;6.43;;;4.43;;
3217;SDS011;1621;49.702;8.618;2023-12-28T13:46:39;6.50;;;4.50;;
3217;SDS011;1621;49.702;8.618;2023-12-28T13:49:05;8.03;;;5.07;;
3217;SDS011;1621;49.702;8.618;2023-12-28T13:51:33;6.77;;;3.90;;
3217;SDS011;1621;49.702;8.618;2023-12-28T13:54:00;5.73;;;3.90;;
3217;SDS011;1621;49.702;8.618;2023-12-28T13:56:26;5.63;;;4.37;;
3217;SDS011;1621;49.702;8.618;2023-12-28T13:58:53;5.60;;;4.17;;
3217;SDS011;1621;49.702;8.618;2023-12-28T14:01:19;5.97;;;4.37;;
3217;SDS011;1621;49.702;8.618;2023-12-28T14:03:46;6.57;;;4.23;;
3217;SDS011;1621;49.702;8.618;2023-12-28T14:06:14;6.70;;;4.27;;
3217;SDS011;1621;49.702;8.618;2023-12-28T14:08:41;7.20;;;5.10;;
3217;SDS011;1621;49.702;8.618;2023-12-28T14:11:07;7.40;;;4.30;;
3217;SDS011;1621;49.702;8.618;2023-12-28T14:13:34;7.57;;;4.60;;
3217;SDS011;1621;49.702;8.618;2023-12-28T14:16:02;6.40;;;4.60;;
3217;SDS011;1621;49.702;8.618;2023-12-28T14:18:28;6.10;;;4.70;;
3217;SDS011;1621;49.702;8.618;2023-12-28T14:20:54;6.40;;;4.40;;
3217;SDS011;1621;49.702;8.618;2023-12-28T14:23:21;7.10;;;4.43;;
3217;SDS011;1621;49.702;8.618;2023-12-28T14:25:49;6.30;;;4.73;;
3217;SDS011;1621;49.702;8.618;2023-12-28T14:28:18;7.30;;;5.03;;
3217;SDS011;1621;49.702;8.618;2023-12-28T14:30:45;7.90;;;5.57;;
3217;SDS011;1621;49.702;8.618;2023-12-28T14:33:12;6.47;;;5.00;;
3217;SDS011;1621;49.702;8.618;2023-12-28T14:35:38;6.63;;;4.83;;
3217;SDS011;1621;49.702;8.618;2023-12-28T14:38:05;6.37;;;4.70;;
3217;SDS011;1621;49.702;8.618;2023-12-28T14:40:32;5.70;;;4.03;;
3217;SDS011;1621;49.702;8.618;2023-12-28T14:43:00;6.97;;;4.73;;
3217;SDS011;1621;49.702;8.618;2023-12-28T14:45:26;6.50;;;4.10;;
3217;SDS011;1621;49.702;8.618;2023-12-28T14:47:53;6.43;;;4.13;;
3217;SDS011;1621;49.702;8.618;2023-12-28T14:50:19;7.20;;;4.80;;
3217;SDS011;1621;49.702;8.618;2023-12-28T14:52:45;5.40;;;3.77;;
3217;SDS011;1621;49.702;8.618;2023-12-28T14:55:12;8.93;;;4.50;;
3217;SDS011;1621;49.702;8.618;2023-12-28T14:57:38;4.97;;;3.70;;
3217;SDS011;1621;49.702;8.618;2023-12-28T15:00:07;6.17;;;4.23;;
3217;SDS011;1621;49.702;8.618;2023-12-28T15:02:35;6.03;;;4.30;;
3217;SDS011;1621;49.702;8.618;2023-12-28T15:05:01;6.73;;;4.47;;
3217;SDS011;1621;49.702;8.618;2023-12-28T15:07:27;6.17;;;3.70;;
3217;SDS011;1621;49.702;8.618;2023-12-28T15:09:54;8.90;;;4.33;;
3217;SDS011;1621;49.702;8.618;2023-12-28T15:12:21;6.40;;;4.10;;